Time;durP1;ratioP1;P1;durP2;ratioP2;P2;SDS_P1;SDS_P2;PMS_P1;PMS_P2;Temp;Humidity;BMP_temperature;BMP_pressure;BME280_temperature;BME280_humidity;BME280_pressure;Samples;Min_cycle;Max_cycle;Signal;HPM_P1;HPM_P2
2023/10/04 00:17:10;;;;;;;5.17;1.53;;;10.90;99.90;;;;;;1942436;72;27770;-87
2023/10/04 00:20:00;;;;;;;7.70;2.20;;;10.90;99.90;;;;;;1915784;73;25228;-88
2023/10/04 00:25:33;;;;;;;6.93;1.97;;;10.90;99.90;;;;;;1922980;72;27064;-87
2023/10/04 00:31:01;;;;;;;11.23;2.00;;;10.80;99.90;;;;;;1932350;72;27044;-87
2023/10/04 00:33:50;;;;;;;8.60;2.07;;;10.80;99.90;;;;;;1907057;73;25270;-88
2023/10/04 00:36:39;;;;;;;7.53;2.03;;;10.80;99.90;;;;;;1906058;74;25219;-87
2023/10/04 00:39:28;;;;;;;8.13;2.40;;;10.80;99.90;;;;;;1903671;74;25833;-88
2023/10/04 00:42:19;;;;;;;12.63;2.40;;;10.70;99.90;;;;;;1922922;73;25270;-88
2023/10/04 00:45:13;;;;;;;6.47;2.23;;;10.80;99.90;;;;;;1914698;73;25197;-87
2023/10/04 00:48:00;;;;;;;5.50;2.00;;;10.70;99.90;;;;;;1906331;73;25251;-88
2023/10/04 00:50:49;;;;;;;8.83;2.70;;;10.70;99.90;;;;;;1856244;76;25208;-88
2023/10/04 00:53:38;;;;;;;6.57;2.87;;;10.70;99.90;;;;;;1902545;73;25263;-88
2023/10/04 00:56:26;;;;;;;8.70;3.13;;;10.60;99.90;;;;;;1912561;73;25246;-88
2023/10/04 00:59:17;;;;;;;8.57;2.87;;;10.60;99.90;;;;;;1906943;73;25311;-87
2023/10/04 01:02:06;;;;;;;17.40;5.17;;;10.50;99.90;;;;;;1867998;76;25252;-88
2023/10/04 01:04:54;;;;;;;12.30;5.63;;;10.50;99.90;;;;;;1906755;73;25264;-88
2023/10/04 01:07:43;;;;;;;13.70;7.27;;;10.40;99.90;;;;;;1906496;73;25804;-88
2023/10/04 01:13:21;;;;;;;14.63;5.00;;;10.40;99.90;;;;;;1950146;72;27860;-88
2023/10/04 01:16:09;;;;;;;13.80;6.83;;;10.40;99.90;;;;;;1906209;73;25784;-88
2023/10/04 01:18:59;;;;;;;18.13;8.43;;;10.40;99.90;;;;;;1903385;74;25156;-88
2023/10/04 01:21:47;;;;;;;20.57;8.30;;;10.30;99.90;;;;;;1903894;74;25164;-87
2023/10/04 01:24:41;;;;;;;20.53;8.87;;;10.30;99.90;;;;;;1910008;74;25258;-88
2023/10/04 01:27:27;;;;;;;15.13;5.60;;;10.30;99.90;;;;;;1910383;74;25729;-87
2023/10/04 01:30:16;;;;;;;7.60;2.80;;;10.30;99.90;;;;;;1901586;74;26510;-88
2023/10/04 01:33:10;;;;;;;6.67;3.13;;;10.30;99.90;;;;;;1901346;74;25259;-87
2023/10/04 01:35:57;;;;;;;6.77;2.83;;;10.30;99.90;;;;;;1901906;74;25764;-87
2023/10/04 01:38:47;;;;;;;5.17;2.20;;;10.30;99.90;;;;;;1905483;74;25312;-87
2023/10/04 01:41:37;;;;;;;6.13;1.90;;;10.30;99.90;;;;;;1899105;74;25287;-87
2023/10/04 01:44:26;;;;;;;5.97;1.70;;;10.30;99.90;;;;;;1894268;74;25247;-87
2023/10/04 01:47:15;;;;;;;11.67;1.80;;;10.40;99.90;;;;;;1889264;74;26628;-88
2023/10/04 01:52:46;;;;;;;4.07;1.70;;;10.30;99.90;;;;;;1946847;72;27001;-87
2023/10/04 01:58:27;;;;;;;7.20;1.60;;;10.30;99.90;;;;;;1943940;72;27005;-87
2023/10/04 02:01:15;;;;;;;2.87;1.70;;;10.40;99.90;;;;;;1917888;73;25704;-87
2023/10/04 02:04:05;;;;;;;5.97;1.50;;;10.40;99.90;;;;;;1903607;72;25302;-87
2023/10/04 02:06:54;;;;;;;10.93;2.03;;;10.40;99.90;;;;;;1933449;73;25240;-87
2023/10/04 02:09:43;;;;;;;7.87;1.83;;;10.50;99.90;;;;;;1917968;73;25297;-87
2023/10/04 02:12:33;;;;;;;6.10;1.83;;;10.40;99.90;;;;;;1923268;73;25361;-87
2023/10/04 02:15:21;;;;;;;7.80;1.67;;;10.40;99.90;;;;;;1940550;72;25269;-88
2023/10/04 02:18:10;;;;;;;10.23;1.73;;;10.40;99.90;;;;;;1921841;73;25234;-88
2023/10/04 02:20:59;;;;;;;10.77;1.50;;;10.40;99.90;;;;;;1913885;73;25912;-88
2023/10/04 02:23:49;;;;;;;9.30;1.83;;;10.40;99.90;;;;;;1938435;73;25274;-88
2023/10/04 02:26:38;;;;;;;4.87;1.87;;;10.30;99.90;;;;;;1924329;73;25219;-88
2023/10/04 02:29:27;;;;;;;9.80;1.97;;;10.30;99.90;;;;;;1914275;72;26506;-88
2023/10/04 02:32:16;;;;;;;5.97;1.63;;;10.30;99.90;;;;;;1922412;73;25289;-88
2023/10/04 02:35:07;;;;;;;13.57;2.50;;;10.30;99.90;;;;;;1873702;75;25209;-88
2023/10/04 02:37:59;;;;;;;4.37;1.67;;;10.30;99.90;;;;;;1874537;75;25252;-88
2023/10/04 02:40:48;;;;;;;5.43;1.70;;;10.30;99.90;;;;;;1865641;75;25351;-88
2023/10/04 02:46:20;;;;;;;5.17;1.70;;;10.30;99.90;;;;;;1925779;72;27085;-87
2023/10/04 02:49:08;;;;;;;6.83;2.00;;;10.30;99.90;;;;;;1887162;75;25297;-88
2023/10/04 02:51:56;;;;;;;3.27;1.50;;;10.40;99.90;;;;;;1893236;75;25355;-87
2023/10/04 02:54:45;;;;;;;11.10;2.07;;;10.30;99.90;;;;;;1877546;75;25743;-88
2023/10/04 02:57:33;;;;;;;7.53;1.90;;;10.30;99.90;;;;;;1891372;75;25810;-88
2023/10/04 03:03:04;;;;;;;4.53;1.63;;;10.30;99.90;;;;;;1929789;72;27028;-87
2023/10/04 03:05:54;;;;;;;10.03;1.70;;;10.30;99.90;;;;;;1906850;74;25280;-87
2023/10/04 03:08:43;;;;;;;7.93;2.10;;;10.30;99.90;;;;;;1858022;76;25263;-87
2023/10/04 03:11:32;;;;;;;14.73;2.40;;;10.30;99.90;;;;;;1840528;76;25908;-87
2023/10/04 03:14:25;;;;;;;9.10;2.63;;;10.40;99.90;;;;;;1902973;74;25716;-86
2023/10/04 03:17:10;;;;;;;13.43;3.40;;;10.40;99.90;;;;;;1882537;74;25267;-86
2023/10/04 03:20:01;;;;;;;15.20;2.30;;;10.40;99.90;;;;;;1863296;76;25258;-87
2023/10/04 03:22:50;;;;;;;5.30;1.60;;;10.40;99.90;;;;;;1808346;78;26112;-88
2023/10/04 03:25:39;;;;;;;4.83;1.63;;;10.30;99.90;;;;;;1900055;74;25898;-88
2023/10/04 03:28:31;;;;;;;10.43;1.73;;;10.40;99.90;;;;;;1859266;76;26022;-88
2023/10/04 03:31:20;;;;;;;10.00;1.63;;;10.30;99.90;;;;;;1803507;78;25871;-88
2023/10/04 03:34:09;;;;;;;6.90;1.80;;;10.30;99.90;;;;;;1911380;74;25276;-88
2023/10/04 03:37:08;;;;;;;7.03;1.57;;;10.30;99.90;;;;;;1865762;76;25236;-88
2023/10/04 03:39:54;;;;;;;7.23;1.87;;;10.30;99.90;;;;;;1822355;77;25721;-88
2023/10/04 03:42:38;;;;;;;5.23;2.03;;;10.30;99.90;;;;;;1845947;76;25264;-87
2023/10/04 03:45:27;;;;;;;4.80;1.97;;;10.30;99.90;;;;;;1798743;78;25267;-88
2023/10/04 03:48:16;;;;;;;6.90;1.50;;;10.30;99.90;;;;;;1831230;76;25248;-88
2023/10/04 03:51:05;;;;;;;4.90;2.20;;;10.30;99.90;;;;;;1840655;76;25378;-88
2023/10/04 03:56:45;;;;;;;12.37;3.37;;;10.30;99.90;;;;;;1947033;72;28250;-87
2023/10/04 03:59:33;;;;;;;14.17;5.73;;;10.30;99.90;;;;;;1941654;72;25290;-87
2023/10/04 04:02:22;;;;;;;8.67;2.87;;;10.20;99.90;;;;;;1923274;72;25223;-87
2023/10/04 04:07:53;;;;;;;8.90;2.50;;;10.30;99.90;;;;;;1936230;72;27144;-88
2023/10/04 04:10:43;;;;;;;12.23;2.30;;;10.30;99.90;;;;;;1913349;73;25275;-87
2023/10/04 04:13:34;;;;;;;7.37;2.30;;;10.30;99.90;;;;;;1896811;73;25207;-87
2023/10/04 04:16:21;;;;;;;4.27;1.77;;;10.30;99.90;;;;;;1896369;73;25274;-87
2023/10/04 04:19:11;;;;;;;6.80;1.40;;;10.20;99.90;;;;;;1902082;73;25313;-87
2023/10/04 04:22:01;;;;;;;5.03;1.20;;;10.20;99.90;;;;;;1887876;73;25265;-87
2023/10/04 04:24:49;;;;;;;9.23;1.97;;;10.20;99.90;;;;;;1908730;73;25312;-87
2023/10/04 04:27:38;;;;;;;3.23;1.30;;;10.20;99.90;;;;;;1910214;73;25228;-87
2023/10/04 04:30:31;;;;;;;5.93;1.43;;;10.20;99.90;;;;;;1906619;73;25304;-87
2023/10/04 04:33:18;;;;;;;4.13;1.30;;;10.20;99.90;;;;;;1911758;73;25915;-87
2023/10/04 04:38:53;;;;;;;7.57;1.60;;;10.20;99.90;;;;;;1920033;72;27083;-87
2023/10/04 04:41:43;;;;;;;5.00;1.47;;;10.20;99.90;;;;;;1872518;76;25789;-87
2023/10/04 04:44:38;;;;;;;5.30;2.30;;;10.20;99.90;;;;;;1866315;75;25374;-87
2023/10/04 04:50:05;;;;;;;6.43;1.40;;;10.20;99.90;;;;;;1934361;72;27591;-87
2023/10/04 04:55:35;;;;;;;8.97;1.50;;;10.10;99.90;;;;;;1889520;74;27162;-87
2023/10/04 04:58:25;;;;;;;10.23;1.47;;;10.10;99.90;;;;;;1847849;76;25291;-87
2023/10/04 05:01:14;;;;;;;10.47;2.00;;;10.20;99.90;;;;;;1857963;76;25648;-87
2023/10/04 05:04:06;;;;;;;4.97;1.70;;;10.20;99.90;;;;;;1859508;76;26600;-87
2023/10/04 05:06:54;;;;;;;3.03;1.20;;;10.20;99.90;;;;;;1857842;77;25257;-87
2023/10/04 05:09:43;;;;;;;6.13;1.70;;;10.20;99.90;;;;;;1842767;77;25550;-87
2023/10/04 05:12:32;;;;;;;8.40;2.17;;;10.20;99.90;;;;;;1857700;77;25891;-87
2023/10/04 05:15:31;;;;;;;5.37;1.30;;;10.20;99.90;;;;;;1847926;77;25675;-87
2023/10/04 05:18:15;;;;;;;11.73;4.30;;;10.20;99.90;;;;;;1854522;77;25227;-87
2023/10/04 05:21:05;;;;;;;14.60;5.03;;;10.20;99.90;;;;;;1854064;77;25218;-87
2023/10/04 05:23:56;;;;;;;14.17;5.53;;;10.30;99.90;;;;;;1851950;77;26092;-88
2023/10/04 05:26:44;;;;;;;16.60;6.00;;;10.30;99.90;;;;;;1848672;77;26692;-87
2023/10/04 05:29:32;;;;;;;18.20;5.50;;;10.30;99.90;;;;;;1850754;77;25764;-87
2023/10/04 05:32:21;;;;;;;19.80;6.57;;;10.30;99.90;;;;;;1848363;77;25262;-87
2023/10/04 05:35:14;;;;;;;33.10;9.63;;;10.30;99.90;;;;;;1843260;77;25703;-87
2023/10/04 05:53:53;;;;;;;17.67;6.50;;;10.40;99.90;;;;;;1942118;72;27120;-88
2023/10/04 05:56:43;;;;;;;10.43;3.63;;;10.40;99.90;;;;;;1903274;75;25792;-87
2023/10/04 06:02:15;;;;;;;21.07;7.57;;;10.40;99.90;;;;;;1944105;72;28323;-88
2023/10/04 06:07:48;;;;;;;20.57;7.17;;;10.50;99.90;;;;;;1936578;72;27096;-87
2023/10/04 06:13:18;;;;;;;19.17;8.10;;;10.50;99.90;;;;;;1939291;72;27172;-88
2023/10/04 06:16:08;;;;;;;15.27;5.17;;;10.50;99.90;;;;;;1924501;73;25337;-87
2023/10/04 06:18:58;;;;;;;13.63;5.70;;;10.60;99.90;;;;;;1921521;73;25697;-87
2023/10/04 06:21:49;;;;;;;14.60;4.50;;;10.60;99.90;;;;;;1916289;73;25255;-87
2023/10/04 06:24:39;;;;;;;8.37;2.20;;;10.60;99.90;;;;;;1929705;73;25322;-87
2023/10/04 06:30:23;;;;;;;2.03;1.00;;;10.60;99.90;;;;;;1946658;72;27078;-87
2023/10/04 06:33:13;;;;;;;5.77;1.70;;;10.70;99.90;;;;;;1934586;73;25154;-87
2023/10/04 06:36:02;;;;;;;1.60;0.60;;;10.70;99.90;;;;;;1946984;73;26230;-90
2023/10/04 06:38:51;;;;;;;3.87;1.43;;;10.70;99.90;;;;;;1918047;73;25206;-88
2023/10/04 06:41:40;;;;;;;3.90;1.43;;;10.70;99.90;;;;;;1886884;75;25425;-88
2023/10/04 06:47:15;;;;;;;4.17;1.43;;;10.90;99.90;;;;;;1925286;72;27577;-88
2023/10/04 06:50:05;;;;;;;8.20;3.07;;;10.90;99.90;;;;;;1899962;73;25306;-88
2023/10/04 06:52:53;;;;;;;7.57;2.90;;;11.00;99.90;;;;;;1908700;73;25227;-88
2023/10/04 06:55:42;;;;;;;8.90;3.20;;;11.10;99.90;;;;;;1910897;73;25671;-88
2023/10/04 06:58:31;;;;;;;8.97;3.50;;;11.20;99.90;;;;;;1872304;76;25299;-86
2023/10/04 07:01:20;;;;;;;10.43;2.80;;;11.30;99.90;;;;;;1840690;76;25708;-88
2023/10/04 07:04:10;;;;;;;11.90;2.67;;;11.40;99.90;;;;;;1859292;75;25244;-88
2023/10/04 07:06:58;;;;;;;7.07;2.10;;;11.60;99.90;;;;;;1865233;76;26928;-88
2023/10/04 07:09:46;;;;;;;8.10;2.60;;;11.50;99.90;;;;;;1874000;75;25679;-88
2023/10/04 07:12:37;;;;;;;9.80;3.00;;;11.60;99.90;;;;;;1875953;76;25252;-88
2023/10/04 07:18:18;;;;;;;11.03;2.80;;;11.70;99.90;;;;;;1947091;72;26995;-87
2023/10/04 07:21:06;;;;;;;8.20;2.70;;;11.80;99.90;;;;;;1928153;73;25250;-87
2023/10/04 07:26:41;;;;;;;8.80;3.17;;;11.90;99.90;;;;;;1944992;72;27504;-87
2023/10/04 07:29:29;;;;;;;9.40;2.77;;;12.00;99.90;;;;;;1916552;73;25257;-88
2023/10/04 07:36:32;;;;;;;8.03;3.10;;;12.20;99.90;;;;;;1975180;71;27124;-88
2023/10/04 07:39:21;;;;;;;8.10;3.10;;;12.40;99.90;;;;;;1923959;73;25200;-87
2023/10/04 07:42:10;;;;;;;10.70;3.67;;;12.20;99.90;;;;;;1998511;70;25212;-88
2023/10/04 07:44:59;;;;;;;9.70;3.67;;;12.40;99.90;;;;;;1962352;72;25215;-88
2023/10/04 07:50:28;;;;;;;6.50;2.73;;;12.40;99.90;;;;;;1931811;72;26986;-88
2023/10/04 07:56:34;;;;;;;8.07;3.20;;;12.50;99.90;;;;;;2009285;71;26862;-88
2023/10/04 07:59:22;;;;;;;7.70;2.27;;;12.70;99.90;;;;;;1956980;72;25653;-87
2023/10/04 08:02:11;;;;;;;5.53;2.07;;;12.60;99.90;;;;;;2056976;69;25200;-88
2023/10/04 08:05:00;;;;;;;9.43;2.27;;;12.70;99.90;;;;;;2043825;69;25182;-87
2023/10/04 08:07:50;;;;;;;3.40;1.30;;;12.90;99.90;;;;;;2041319;69;25319;-87
2023/10/04 08:10:39;;;;;;;1.83;1.00;;;12.90;99.90;;;;;;2040837;69;25170;-87
2023/10/04 08:13:29;;;;;;;5.00;1.60;;;12.70;99.90;;;;;;2037147;69;25250;-88
2023/10/04 08:16:17;;;;;;;1.63;0.90;;;12.80;99.90;;;;;;2043878;69;25147;-88
2023/10/04 08:19:06;;;;;;;0.80;0.80;;;12.90;99.90;;;;;;2045814;69;25206;-88
2023/10/04 08:21:55;;;;;;;1.03;0.60;;;13.00;99.90;;;;;;2045170;69;25166;-88
2023/10/04 08:24:46;;;;;;;2.80;0.90;;;13.00;99.90;;;;;;2055268;69;25319;-88
2023/10/04 08:27:35;;;;;;;3.30;0.60;;;13.10;99.90;;;;;;2052934;69;25227;-88
2023/10/04 08:30:25;;;;;;;3.80;1.00;;;13.20;99.90;;;;;;2049425;69;25191;-88
2023/10/04 08:33:14;;;;;;;3.47;0.90;;;13.50;99.90;;;;;;1960836;72;25768;-88
2023/10/04 08:36:08;;;;;;;2.53;1.07;;;13.40;99.90;;;;;;2041137;69;25126;-88
2023/10/04 08:38:53;;;;;;;2.23;0.80;;;13.50;99.90;;;;;;2034165;69;25209;-88
2023/10/04 08:44:22;;;;;;;1.10;0.80;;;13.80;99.90;;;;;;1936420;72;27064;-88
2023/10/04 08:47:11;;;;;;;0.50;0.50;;;13.80;99.90;;;;;;1927489;73;25207;-88
2023/10/04 08:50:01;;;;;;;2.07;0.63;;;14.00;99.90;;;;;;1901610;75;25757;-88
2023/10/04 08:52:53;;;;;;;10.73;1.00;;;13.80;99.90;;;;;;1837519;77;25304;-88
2023/10/04 08:55:43;;;;;;;0.60;0.60;;;13.80;99.90;;;;;;1937680;73;25677;-88
2023/10/04 08:58:33;;;;;;;3.00;0.60;;;13.80;99.90;;;;;;1895436;75;25212;-88
2023/10/04 09:01:23;;;;;;;2.23;0.80;;;13.90;99.90;;;;;;1951631;72;25316;-87
2023/10/04 09:04:14;;;;;;;1.30;0.60;;;13.90;99.90;;;;;;1897096;75;25750;-88
2023/10/04 09:07:03;;;;;;;1.07;0.80;;;13.90;99.90;;;;;;1866710;76;25247;-87
2023/10/04 09:09:54;;;;;;;4.37;0.80;;;14.00;99.90;;;;;;1898098;75;25329;-88
2023/10/04 09:12:43;;;;;;;1.87;1.20;;;14.00;99.90;;;;;;1849366;77;25323;-88
2023/10/04 09:15:32;;;;;;;5.13;1.30;;;14.10;99.90;;;;;;1931600;72;25152;-88
2023/10/04 09:21:17;;;;;;;2.63;1.60;;;14.40;99.90;;;;;;1929401;72;27683;-88
2023/10/04 09:24:11;;;;;;;1.87;1.33;;;14.50;99.90;;;;;;1903881;74;25235;-88
2023/10/04 09:27:00;;;;;;;5.50;1.93;;;14.50;99.90;;;;;;1886138;75;25279;-88
2023/10/04 09:32:39;;;;;;;1.30;0.97;;;14.50;99.90;;;;;;1928406;72;26950;-88
2023/10/04 09:35:36;;;;;;;1.40;0.70;;;14.60;99.90;;;;;;1876284;75;25337;-88
2023/10/04 09:38:25;;;;;;;1.70;0.70;;;14.60;99.90;;;;;;1812564;77;25625;-88
2023/10/04 09:44:02;;;;;;;2.97;1.47;;;14.80;99.90;;;;;;1939437;72;27116;-91
2023/10/04 09:46:54;;;;;;;2.87;1.40;;;14.90;99.90;;;;;;1885003;75;25722;-88
2023/10/04 09:49:44;;;;;;;1.93;1.10;;;14.80;99.90;;;;;;1883990;75;25269;-87
2023/10/04 09:52:33;;;;;;;3.60;0.70;;;14.70;99.90;;;;;;1892442;75;25792;-88
2023/10/04 09:55:22;;;;;;;2.83;0.70;;;14.70;99.90;;;;;;1894857;75;25262;-88
2023/10/04 09:58:14;;;;;;;2.43;0.77;;;14.80;99.90;;;;;;1898827;75;25279;-88
2023/10/04 10:01:11;;;;;;;1.73;0.97;;;14.90;99.90;;;;;;1905277;75;25223;-88
2023/10/04 10:04:02;;;;;;;3.53;1.00;;;14.80;99.90;;;;;;1890497;75;25225;-88
2023/10/04 10:07:00;;;;;;;5.40;1.10;;;15.00;99.90;;;;;;1886616;75;25242;-90
2023/10/04 10:09:57;;;;;;;1.87;1.10;;;15.20;99.90;;;;;;1903369;75;25322;-89
2023/10/04 10:12:46;;;;;;;3.70;0.80;;;15.00;99.90;;;;;;1905012;73;25271;-90
2023/10/04 10:15:35;;;;;;;1.97;1.00;;;15.10;99.90;;;;;;1904095;73;25253;-90
2023/10/04 10:18:24;;;;;;;1.70;1.13;;;15.10;99.90;;;;;;1893247;75;25186;-89
2023/10/04 10:24:03;;;;;;;1.77;1.13;;;15.30;99.90;;;;;;1927807;72;27093;-89
2023/10/04 10:27:02;;;;;;;1.00;0.90;;;15.20;99.90;;;;;;1848915;76;25704;-89
2023/10/04 10:32:35;;;;;;;3.63;1.23;;;15.20;99.90;;;;;;1991919;71;27034;-89
2023/10/04 10:35:51;;;;;;;1.47;1.10;;;15.20;99.90;;;;;;1976826;71;25313;-90
2023/10/04 10:42:07;;;;;;;1.87;0.83;;;15.30;99.90;;;;;;1963865;71;26936;-88
2023/10/04 10:45:17;;;;;;;4.07;1.00;;;15.30;99.90;;;;;;1959496;72;25167;-88
2023/10/04 10:50:55;;;;;;;0.83;0.70;;;15.30;99.90;;;;;;1956235;72;26987;-88
2023/10/04 10:56:37;;;;;;;2.03;0.87;;;15.30;99.90;;;;;;1964900;72;26919;-88
2023/10/04 10:59:21;;;;;;;0.90;0.60;;;15.40;99.90;;;;;;1926635;73;25243;-86
2023/10/04 11:02:10;;;;;;;2.07;0.73;;;15.50;99.90;;;;;;1915246;73;25250;-87
2023/10/04 11:09:17;;;;;;;1.23;0.70;;;15.40;99.90;;;;;;2063552;68;27074;-88
2023/10/04 11:12:07;;;;;;;1.63;1.03;;;15.40;99.90;;;;;;2042309;69;25206;-88
2023/10/04 11:18:48;;;;;;;0.83;0.70;;;15.80;99.90;;;;;;1978705;71;27184;-88
2023/10/04 11:21:37;;;;;;;0.97;0.63;;;15.80;99.90;;;;;;1985097;72;25205;-88
2023/10/04 11:24:27;;;;;;;0.70;0.60;;;15.80;99.90;;;;;;2061481;69;25795;-89
2023/10/04 11:30:10;;;;;;;2.07;1.00;;;15.90;99.90;;;;;;1945323;72;27070;-88
2023/10/04 12:19:08;;;;;;;2.93;1.30;;;15.90;99.90;;;;;;1950462;72;27595;-88
2023/10/04 12:21:57;;;;;;;3.37;0.97;;;15.80;99.90;;;;;;1926119;73;25169;-88
2023/10/04 12:27:28;;;;;;;1.83;1.30;;;15.60;99.90;;;;;;1946661;72;27006;-88
2023/10/04 12:30:18;;;;;;;2.17;1.00;;;15.70;99.90;;;;;;1915879;73;25244;-88
2023/10/04 12:33:08;;;;;;;6.70;2.00;;;15.60;99.90;;;;;;1927885;73;25936;-88
2023/10/04 12:35:57;;;;;;;4.00;2.40;;;15.80;99.90;;;;;;1916355;75;25240;-88
2023/10/04 12:38:47;;;;;;;3.80;2.23;;;15.80;99.90;;;;;;1917969;73;25198;-88
2023/10/04 12:41:38;;;;;;;2.23;1.40;;;15.70;99.90;;;;;;1912353;73;25226;-87
2023/10/04 12:44:27;;;;;;;1.30;1.07;;;15.70;99.90;;;;;;1905509;74;25254;-87
2023/10/04 12:47:16;;;;;;;0.57;0.57;;;15.70;99.90;;;;;;1897608;74;25176;-87
2023/10/04 12:52:47;;;;;;;0.30;0.30;;;15.60;99.90;;;;;;1932539;72;26682;-89
2023/10/04 12:55:35;;;;;;;2.50;0.50;;;15.60;99.90;;;;;;1857246;76;25248;-89
2023/10/04 12:58:24;;;;;;;0.70;0.70;;;15.60;99.90;;;;;;1852090;77;25296;-89
2023/10/04 13:01:13;;;;;;;0.67;0.57;;;15.60;99.90;;;;;;1857915;77;25232;-89
2023/10/04 13:18:57;;;;;;;2.93;0.70;;;15.60;99.90;;;;;;1924445;74;26307;-88
2023/10/04 13:24:33;;;;;;;6.13;1.43;;;15.70;99.90;;;;;;1951647;72;27345;-88
2023/10/04 13:30:10;;;;;;;1.07;0.80;;;15.70;99.90;;;;;;1947607;72;27002;-87
2023/10/04 13:33:00;;;;;;;0.73;0.73;;;15.70;99.90;;;;;;1950959;72;25278;-88
2023/10/04 13:35:51;;;;;;;1.33;0.80;;;15.60;99.90;;;;;;1928821;72;25256;-88
2023/10/04 13:38:39;;;;;;;0.67;0.67;;;15.60;99.90;;;;;;1932017;73;25772;-88
2023/10/04 13:41:28;;;;;;;1.43;0.90;;;15.50;99.90;;;;;;1933925;73;25298;-88
2023/10/04 13:47:08;;;;;;;1.90;1.20;;;15.50;99.90;;;;;;1948292;72;27512;-88
2023/10/04 13:49:58;;;;;;;0.80;0.80;;;15.50;99.90;;;;;;1947454;72;25781;-88
2023/10/04 13:52:46;;;;;;;0.80;0.80;;;15.50;99.90;;;;;;1929128;73;25745;-88
2023/10/04 13:55:36;;;;;;;1.23;0.53;;;15.50;99.90;;;;;;1933444;72;25356;-88
2023/10/04 13:58:25;;;;;;;2.60;1.93;;;15.40;99.90;;;;;;1944038;72;25244;-88
2023/10/04 14:01:14;;;;;;;0.67;0.67;;;15.40;99.90;;;;;;1934051;72;25205;-89
2023/10/04 14:32:12;;;;;;;3.30;2.23;;;15.20;99.90;;;;;;1882227;73;27832;-91
2023/10/04 14:38:08;;;;;;;5.13;2.83;;;15.00;99.90;;;;;;1944605;72;26852;-90
2023/10/04 14:40:58;;;;;;;9.23;3.90;;;15.00;99.90;;;;;;1924805;73;25702;-90
2023/10/04 14:43:47;;;;;;;2.20;2.00;;;15.00;99.90;;;;;;1890880;75;25717;-90
2023/10/04 14:46:36;;;;;;;3.43;1.73;;;14.90;99.90;;;;;;1888751;75;25183;-90
2023/10/04 14:49:25;;;;;;;3.80;1.07;;;15.00;99.90;;;;;;1895172;75;25189;-89
2023/10/04 15:06:02;;;;;;;0.30;0.30;;;15.10;99.90;;;;;;1997168;71;26273;-89
2023/10/04 15:14:09;;;;;;;0.30;0.30;;;15.10;99.90;;;;;;1978118;71;27047;-90
2023/10/04 15:16:58;;;;;;;1.40;0.40;;;15.00;99.90;;;;;;1956105;71;25218;-90
2023/10/04 15:19:47;;;;;;;0.93;0.30;;;14.90;99.90;;;;;;2039649;68;25218;-90
2023/10/04 15:22:39;;;;;;;0.60;0.60;;;14.80;99.90;;;;;;2018082;71;25602;-89
2023/10/04 15:25:29;;;;;;;1.27;0.40;;;14.80;99.90;;;;;;2059296;68;25595;-89
2023/10/04 15:28:18;;;;;;;7.33;0.47;;;14.80;99.90;;;;;;2045946;68;25157;-90
2023/10/04 15:34:00;;;;;;;1.10;0.40;;;14.70;99.90;;;;;;1962268;72;27008;-89
2023/10/04 15:36:50;;;;;;;0.30;0.30;;;14.60;99.90;;;;;;1944132;72;25213;-90
2023/10/04 15:39:41;;;;;;;0.20;0.20;;;14.60;99.90;;;;;;1936293;73;25589;-89
2023/10/04 15:42:30;;;;;;;0.33;0.30;;;14.60;99.90;;;;;;1934075;73;25386;-89
2023/10/04 15:45:20;;;;;;;1.17;0.37;;;14.50;99.90;;;;;;1946270;73;25154;-89
2023/10/04 15:48:11;;;;;;;2.27;0.30;;;14.40;99.90;;;;;;1948745;73;25218;-89
2023/10/04 15:51:00;;;;;;;0.87;0.40;;;14.40;99.90;;;;;;1928789;73;25309;-89
2023/10/04 15:56:42;;;;;;;0.23;0.20;;;14.30;99.90;;;;;;1949011;72;27511;-89
2023/10/04 16:03:54;;;;;;;0.40;0.40;;;14.20;99.90;;;;;;1993917;71;27050;-90
2023/10/04 16:06:44;;;;;;;0.93;0.50;;;14.00;99.90;;;;;;1918620;72;25214;-90
2023/10/04 16:09:40;;;;;;;0.70;0.40;;;13.90;99.90;;;;;;2015070;69;25188;-89
2023/10/04 16:12:30;;;;;;;1.50;0.30;;;13.90;99.90;;;;;;2046048;69;25226;-90
2023/10/04 16:15:22;;;;;;;0.40;0.40;;;13.80;99.90;;;;;;1993651;71;25266;-90
2023/10/04 16:21:09;;;;;;;0.83;0.20;;;13.70;99.90;;;;;;1964019;72;29987;-89
2023/10/04 16:23:59;;;;;;;0.73;0.30;;;13.70;99.90;;;;;;1922542;73;25261;-89
2023/10/04 16:26:50;;;;;;;0.43;0.30;;;13.60;99.90;;;;;;1918992;73;25252;-90
2023/10/04 16:29:39;;;;;;;0.30;0.30;;;13.50;99.90;;;;;;1934206;73;25296;-90
2023/10/04 16:32:29;;;;;;;0.30;0.20;;;13.50;99.90;;;;;;1921810;73;26592;-88
2023/10/04 16:35:19;;;;;;;2.83;0.40;;;13.40;99.90;;;;;;1920187;73;25559;-88
2023/10/04 16:38:08;;;;;;;0.47;0.40;;;13.40;99.90;;;;;;1918123;73;25209;-88
2023/10/04 16:40:57;;;;;;;2.73;0.40;;;13.30;99.90;;;;;;1919033;73;25308;-88
2023/10/04 16:43:46;;;;;;;0.80;0.40;;;13.30;99.90;;;;;;1890788;75;25277;-88
2023/10/04 16:46:34;;;;;;;0.40;0.40;;;13.30;99.90;;;;;;1896879;75;25242;-88
2023/10/04 16:49:23;;;;;;;0.30;0.30;;;13.30;99.90;;;;;;1895500;75;25256;-88
2023/10/04 17:05:39;;;;;;;1.07;0.40;;;13.30;99.90;;;;;;1950198;72;27455;-88
2023/10/04 17:08:27;;;;;;;0.77;0.40;;;13.10;99.90;;;;;;1934143;73;25552;-88
2023/10/04 17:11:16;;;;;;;1.60;0.43;;;13.10;99.90;;;;;;1941987;72;25184;-88
2023/10/04 17:14:05;;;;;;;0.97;0.60;;;13.00;99.90;;;;;;1927715;72;25199;-88
2023/10/04 17:16:53;;;;;;;2.30;0.60;;;13.00;99.90;;;;;;1946376;73;25295;-88
2023/10/04 17:19:43;;;;;;;1.50;0.63;;;13.00;99.90;;;;;;1933475;72;25251;-88
2023/10/04 17:22:32;;;;;;;0.50;0.50;;;13.00;99.90;;;;;;1911431;73;25227;-88
2023/10/04 17:28:13;;;;;;;2.70;0.80;;;12.90;99.90;;;;;;1947640;72;27017;-89
2023/10/04 17:31:02;;;;;;;2.40;0.70;;;12.90;99.90;;;;;;1950621;72;25732;-89
2023/10/04 17:33:51;;;;;;;3.73;1.20;;;12.90;99.90;;;;;;1941163;73;25262;-89
2023/10/04 17:36:40;;;;;;;3.30;1.00;;;12.80;99.90;;;;;;1941035;72;25708;-89
2023/10/04 17:39:29;;;;;;;2.33;1.10;;;12.70;99.90;;;;;;1938805;72;25197;-89
2023/10/04 17:45:05;;;;;;;1.90;1.20;;;12.60;99.90;;;;;;1945896;72;27032;-88
2023/10/04 17:47:54;;;;;;;2.93;0.70;;;12.60;99.90;;;;;;1923267;73;26545;-87
2023/10/04 17:50:45;;;;;;;2.03;0.57;;;12.50;99.90;;;;;;1931407;73;25244;-88
2023/10/04 17:53:34;;;;;;;0.47;0.47;;;12.50;99.90;;;;;;1926508;73;25272;-88
2023/10/04 17:59:09;;;;;;;2.47;0.73;;;12.40;99.90;;;;;;1991901;71;27059;-88
2023/10/04 18:01:58;;;;;;;4.20;0.70;;;12.50;99.90;;;;;;1948567;72;25707;-88
2023/10/04 18:04:47;;;;;;;2.27;0.67;;;12.40;99.90;;;;;;1944628;72;25193;-88
2023/10/04 18:07:35;;;;;;;2.80;0.60;;;12.40;99.90;;;;;;1961601;72;25237;-88
2023/10/04 18:13:16;;;;;;;3.03;0.67;;;12.30;99.90;;;;;;1951135;72;27512;-88
2023/10/04 18:16:05;;;;;;;3.87;0.50;;;12.20;99.90;;;;;;1932529;72;26814;-88
2023/10/04 18:18:54;;;;;;;1.00;0.50;;;12.10;99.90;;;;;;1915500;73;25326;-88
2023/10/04 18:21:43;;;;;;;0.60;0.50;;;12.10;99.90;;;;;;1920912;72;25204;-88
2023/10/04 18:24:32;;;;;;;5.63;0.67;;;12.10;99.90;;;;;;1878233;75;25230;-88
2023/10/04 18:27:20;;;;;;;4.90;0.50;;;12.00;99.90;;;;;;1876015;76;25302;-88
2023/10/04 18:30:10;;;;;;;3.80;0.83;;;12.10;99.90;;;;;;1903193;75;25224;-88
2023/10/04 18:32:59;;;;;;;2.33;0.50;;;12.00;99.90;;;;;;1886170;75;25185;-88
2023/10/04 18:35:48;;;;;;;1.27;0.60;;;11.90;99.90;;;;;;1902721;75;25712;-88
2023/10/04 18:38:36;;;;;;;0.60;0.60;;;11.90;99.90;;;;;;1885871;75;25648;-88
2023/10/04 18:41:26;;;;;;;1.27;0.63;;;11.90;99.90;;;;;;1895152;75;25227;-88
2023/10/04 18:44:16;;;;;;;2.10;0.43;;;11.80;99.90;;;;;;1837537;77;25306;-88
2023/10/04 18:47:05;;;;;;;2.13;0.50;;;11.80;99.90;;;;;;1861512;75;25596;-88
2023/10/04 18:49:54;;;;;;;1.70;0.70;;;11.80;99.90;;;;;;1911641;74;25889;-89
2023/10/04 18:52:42;;;;;;;1.27;0.60;;;11.90;99.90;;;;;;1908265;74;25323;-88
2023/10/04 18:58:19;;;;;;;3.03;1.10;;;11.80;99.90;;;;;;2015157;69;26790;-88
2023/10/04 19:01:05;;;;;;;4.27;1.10;;;11.70;99.90;;;;;;1985315;72;25229;-87
2023/10/04 19:03:54;;;;;;;4.00;1.67;;;11.80;99.90;;;;;;1971715;72;25254;-88
2023/10/04 19:06:43;;;;;;;3.63;1.20;;;11.70;99.90;;;;;;1988881;72;25297;-88
2023/10/04 19:09:33;;;;;;;2.50;1.20;;;11.70;99.90;;;;;;1985581;72;25184;-88
2023/10/04 19:12:22;;;;;;;1.60;0.80;;;11.50;99.90;;;;;;1969019;72;25678;-88
2023/10/04 19:15:14;;;;;;;2.90;0.90;;;11.50;99.90;;;;;;1993773;72;25196;-88
2023/10/04 19:18:01;;;;;;;4.27;1.20;;;11.50;99.90;;;;;;1960590;72;25346;-88
2023/10/04 19:20:50;;;;;;;2.73;0.90;;;11.40;99.90;;;;;;1977661;72;25283;-89
2023/10/04 19:23:41;;;;;;;4.20;0.80;;;11.40;99.90;;;;;;1976040;72;25632;-89
2023/10/04 19:26:29;;;;;;;3.73;1.10;;;11.30;99.90;;;;;;1966439;72;25305;-89
2023/10/04 19:29:19;;;;;;;1.13;0.70;;;11.30;99.90;;;;;;1978936;72;25238;-89
2023/10/04 19:32:09;;;;;;;2.67;1.07;;;11.20;99.90;;;;;;1972435;72;25278;-89
2023/10/04 19:34:57;;;;;;;1.30;0.80;;;11.20;99.90;;;;;;1976140;72;25144;-89
2023/10/04 19:37:46;;;;;;;2.13;0.90;;;11.20;99.90;;;;;;1973342;72;25216;-89